sensor_id;sensor_type;location;lat;lon;timestamp;temperature;humidity
20726;DHT22;10524;48.132;8.518;2022-07-25T00:00:06;16.40;99.90
20726;DHT22;10524;48.132;8.518;2022-07-25T00:02:32;16.40;99.90
20726;DHT22;10524;48.132;8.518;2022-07-25T00:04:57;16.40;99.90
20726;DHT22;10524;48.132;8.518;2022-07-25T00:07:23;16.30;99.90
20726;DHT22;10524;48.132;8.518;2022-07-25T00:09:49;16.20;99.90
20726;DHT22;10524;48.132;8.518;2022-07-25T00:12:14;16.20;99.90
20726;DHT22;10524;48.132;8.518;2022-07-25T00:14:40;16.10;99.90
20726;DHT22;10524;48.132;8.518;2022-07-25T00:17:06;16.10;99.90
20726;DHT22;10524;48.132;8.518;2022-07-25T00:19:31;16.10;99.90
20726;DHT22;10524;48.132;8.518;2022-07-25T00:21:57;16.00;99.90
20726;DHT22;10524;48.132;8.518;2022-07-25T00:24:23;16.10;99.90
20726;DHT22;10524;48.132;8.518;2022-07-25T00:26:48;16.10;99.90
20726;DHT22;10524;48.132;8.518;2022-07-25T00:29:14;16.10;99.90
20726;DHT22;10524;48.132;8.518;2022-07-25T00:31:40;16.00;99.90
20726;DHT22;10524;48.132;8.518;2022-07-25T00:34:05;16.00;99.90
20726;DHT22;10524;48.132;8.518;2022-07-25T00:36:31;16.00;99.90
20726;DHT22;10524;48.132;8.518;2022-07-25T00:38:57;15.90;99.90
20726;DHT22;10524;48.132;8.518;2022-07-25T00:41:22;15.70;99.90
20726;DHT22;10524;48.132;8.518;2022-07-25T00:43:48;15.60;99.90
20726;DHT22;10524;48.132;8.518;2022-07-25T00:46:15;15.60;99.90
20726;DHT22;10524;48.132;8.518;2022-07-25T00:48:41;15.60;99.90
20726;DHT22;10524;48.132;8.518;2022-07-25T00:51:08;15.70;99.90
20726;DHT22;10524;48.132;8.518;2022-07-25T00:53:38;15.60;99.90
20726;DHT22;10524;48.132;8.518;2022-07-25T00:56:05;15.50;99.90
20726;DHT22;10524;48.132;8.518;2022-07-25T00:58:31;15.40;99.90
20726;DHT22;10524;48.132;8.518;2022-07-25T01:00:57;15.40;99.90
20726;DHT22;10524;48.132;8.518;2022-07-25T01:03:23;15.40;99.90
20726;DHT22;10524;48.132;8.518;2022-07-25T01:05:49;15.40;99.90
20726;DHT22;10524;48.132;8.518;2022-07-25T01:08:19;15.50;99.90
20726;DHT22;10524;48.132;8.518;2022-07-25T01:10:45;15.40;99.90
20726;DHT22;10524;48.132;8.518;2022-07-25T01:13:11;15.40;99.90
20726;DHT22;10524;48.132;8.518;2022-07-25T01:15:37;15.40;99.90
20726;DHT22;10524;48.132;8.518;2022-07-25T01:18:02;15.40;99.90
20726;DHT22;10524;48.132;8.518;2022-07-25T01:20:29;15.40;99.90
20726;DHT22;10524;48.132;8.518;2022-07-25T01:22:56;15.40;99.90
20726;DHT22;10524;48.132;8.518;2022-07-25T01:25:22;15.40;99.90
20726;DHT22;10524;48.132;8.518;2022-07-25T01:27:49;15.30;99.90
20726;DHT22;10524;48.132;8.518;2022-07-25T01:30:16;15.20;99.90
20726;DHT22;10524;48.132;8.518;2022-07-25T01:32:42;15.20;99.90
20726;DHT22;10524;48.132;8.518;2022-07-25T01:35:09;15.10;99.90
20726;DHT22;10524;48.132;8.518;2022-07-25T01:37:35;15.10;99.90
20726;DHT22;10524;48.132;8.518;2022-07-25T01:40:01;15.10;99.90
20726;DHT22;10524;48.132;8.518;2022-07-25T01:42:26;15.10;99.90
20726;DHT22;10524;48.132;8.518;2022-07-25T01:44:53;15.10;99.90
20726;DHT22;10524;48.132;8.518;2022-07-25T01:47:18;15.00;99.90
20726;DHT22;10524;48.132;8.518;2022-07-25T01:49:44;15.00;99.90
20726;DHT22;10524;48.132;8.518;2022-07-25T01:52:11;15.00;99.90
20726;DHT22;10524;48.132;8.518;2022-07-25T01:54:37;15.00;99.90
20726;DHT22;10524;48.132;8.518;2022-07-25T01:57:05;15.00;99.90
20726;DHT22;10524;48.132;8.518;2022-07-25T01:59:31;15.10;99.90
20726;DHT22;10524;48.132;8.518;2022-07-25T02:01:56;15.00;99.90
20726;DHT22;10524;48.132;8.518;2022-07-25T02:04:22;15.00;99.90
20726;DHT22;10524;48.132;8.518;2022-07-25T02:06:48;14.90;99.90
20726;DHT22;10524;48.132;8.518;2022-07-25T02:09:14;14.80;99.90
20726;DHT22;10524;48.132;8.518;2022-07-25T02:11:39;14.80;99.90
20726;DHT22;10524;48.132;8.518;2022-07-25T02:14:05;14.90;99.90
20726;DHT22;10524;48.132;8.518;2022-07-25T02:16:31;14.90;99.90
20726;DHT22;10524;48.132;8.518;2022-07-25T02:18:57;14.90;99.90
20726;DHT22;10524;48.132;8.518;2022-07-25T02:21:23;14.90;99.90
20726;DHT22;10524;48.132;8.518;2022-07-25T02:23:49;14.80;99.90
20726;DHT22;10524;48.132;8.518;2022-07-25T02:26:15;14.70;99.90
20726;DHT22;10524;48.132;8.518;2022-07-25T02:28:40;14.70;99.90
20726;DHT22;10524;48.132;8.518;2022-07-25T02:31:06;14.70;99.90
20726;DHT22;10524;48.132;8.518;2022-07-25T02:33:32;14.70;99.90
20726;DHT22;10524;48.132;8.518;2022-07-25T02:35:58;14.70;99.90
20726;DHT22;10524;48.132;8.518;2022-07-25T02:38:23;14.70;99.90
20726;DHT22;10524;48.132;8.518;2022-07-25T02:40:51;14.80;99.90
20726;DHT22;10524;48.132;8.518;2022-07-25T02:43:18;14.80;99.90
20726;DHT22;10524;48.132;8.518;2022-07-25T02:45:44;14.80;99.90
20726;DHT22;10524;48.132;8.518;2022-07-25T02:48:10;14.70;99.90
20726;DHT22;10524;48.132;8.518;2022-07-25T02:50:36;14.70;99.90
20726;DHT22;10524;48.132;8.518;2022-07-25T02:53:03;14.50;99.90
20726;DHT22;10524;48.132;8.518;2022-07-25T02:55:29;14.50;99.90
20726;DHT22;10524;48.132;8.518;2022-07-25T02:57:55;14.50;99.90
20726;DHT22;10524;48.132;8.518;2022-07-25T03:00:21;14.50;99.90
20726;DHT22;10524;48.132;8.518;2022-07-25T03:02:47;14.50;99.90
20726;DHT22;10524;48.132;8.518;2022-07-25T03:05:14;14.50;99.90
20726;DHT22;10524;48.132;8.518;2022-07-25T03:07:42;14.40;99.90
20726;DHT22;10524;48.132;8.518;2022-07-25T03:10:10;14.30;99.90
20726;DHT22;10524;48.132;8.518;2022-07-25T03:12:35;14.30;99.90
20726;DHT22;10524;48.132;8.518;2022-07-25T03:15:03;14.30;99.90
20726;DHT22;10524;48.132;8.518;2022-07-25T03:17:29;14.20;99.90
20726;DHT22;10524;48.132;8.518;2022-07-25T03:19:55;14.20;99.90
20726;DHT22;10524;48.132;8.518;2022-07-25T03:22:21;14.10;99.90
20726;DHT22;10524;48.132;8.518;2022-07-25T03:24:47;14.00;99.90
20726;DHT22;10524;48.132;8.518;2022-07-25T03:27:13;14.00;99.90
20726;DHT22;10524;48.132;8.518;2022-07-25T03:29:39;14.00;99.90
20726;DHT22;10524;48.132;8.518;2022-07-25T03:32:06;14.10;99.90
20726;DHT22;10524;48.132;8.518;2022-07-25T03:34:32;14.10;99.90
20726;DHT22;10524;48.132;8.518;2022-07-25T03:36:58;14.10;99.90
20726;DHT22;10524;48.132;8.518;2022-07-25T03:39:25;14.20;99.90
20726;DHT22;10524;48.132;8.518;2022-07-25T03:41:51;14.10;99.90
20726;DHT22;10524;48.132;8.518;2022-07-25T03:44:18;14.20;99.90
20726;DHT22;10524;48.132;8.518;2022-07-25T03:46:44;14.30;99.90
20726;DHT22;10524;48.132;8.518;2022-07-25T03:49:10;14.30;99.90
20726;DHT22;10524;48.132;8.518;2022-07-25T03:51:36;14.20;99.90
20726;DHT22;10524;48.132;8.518;2022-07-25T03:54:02;14.10;99.90
20726;DHT22;10524;48.132;8.518;2022-07-25T03:56:31;14.10;99.90
20726;DHT22;10524;48.132;8.518;2022-07-25T03:58:57;14.00;99.90
20726;DHT22;10524;48.132;8.518;2022-07-25T04:01:23;14.00;99.90
20726;DHT22;10524;48.132;8.518;2022-07-25T04:03:48;14.00;99.90
20726;DHT22;10524;48.132;8.518;2022-07-25T04:06:14;14.00;99.90
20726;DHT22;10524;48.132;8.518;2022-07-25T04:08:40;14.10;99.90
20726;DHT22;10524;48.132;8.518;2022-07-25T04:11:05;14.20;99.90
20726;DHT22;10524;48.132;8.518;2022-07-25T04:13:31;14.20;99.90
20726;DHT22;10524;48.132;8.518;2022-07-25T04:15:56;14.40;99.90
20726;DHT22;10524;48.132;8.518;2022-07-25T04:18:22;14.70;99.90
20726;DHT22;10524;48.132;8.518;2022-07-25T04:20:48;15.00;99.90
20726;DHT22;10524;48.132;8.518;2022-07-25T04:23:13;15.30;99.90
20726;DHT22;10524;48.132;8.518;2022-07-25T04:25:39;15.80;99.90
20726;DHT22;10524;48.132;8.518;2022-07-25T04:28:05;16.20;99.90
20726;DHT22;10524;48.132;8.518;2022-07-25T04:30:30;16.60;99.90
20726;DHT22;10524;48.132;8.518;2022-07-25T04:32:56;17.10;99.90
20726;DHT22;10524;48.132;8.518;2022-07-25T04:35:22;17.40;99.90
20726;DHT22;10524;48.132;8.518;2022-07-25T04:37:48;17.90;99.90
20726;DHT22;10524;48.132;8.518;2022-07-25T04:40:13;18.30;99.90
20726;DHT22;10524;48.132;8.518;2022-07-25T04:42:39;18.60;99.90
20726;DHT22;10524;48.132;8.518;2022-07-25T04:45:05;19.00;99.90
20726;DHT22;10524;48.132;8.518;2022-07-25T04:47:31;19.60;99.90
20726;DHT22;10524;48.132;8.518;2022-07-25T04:49:57;20.10;99.90
20726;DHT22;10524;48.132;8.518;2022-07-25T04:52:24;20.60;99.90
20726;DHT22;10524;48.132;8.518;2022-07-25T04:54:49;21.10;99.90
20726;DHT22;10524;48.132;8.518;2022-07-25T04:57:15;21.60;99.90
20726;DHT22;10524;48.132;8.518;2022-07-25T04:59:41;22.20;99.90
20726;DHT22;10524;48.132;8.518;2022-07-25T05:02:07;22.70;99.90
20726;DHT22;10524;48.132;8.518;2022-07-25T05:04:32;22.80;99.90
20726;DHT22;10524;48.132;8.518;2022-07-25T05:06:58;23.00;99.90
20726;DHT22;10524;48.132;8.518;2022-07-25T05:09:23;23.50;99.90
20726;DHT22;10524;48.132;8.518;2022-07-25T05:11:49;24.00;99.90
20726;DHT22;10524;48.132;8.518;2022-07-25T05:14:15;24.40;99.90
20726;DHT22;10524;48.132;8.518;2022-07-25T05:16:40;24.90;99.90
20726;DHT22;10524;48.132;8.518;2022-07-25T05:19:06;25.50;99.90
20726;DHT22;10524;48.132;8.518;2022-07-25T05:21:33;26.00;99.90
20726;DHT22;10524;48.132;8.518;2022-07-25T05:23:59;26.50;99.90
20726;DHT22;10524;48.132;8.518;2022-07-25T05:26:25;27.00;99.90
20726;DHT22;10524;48.132;8.518;2022-07-25T05:28:50;27.20;99.90
20726;DHT22;10524;48.132;8.518;2022-07-25T05:31:16;27.40;99.90
20726;DHT22;10524;48.132;8.518;2022-07-25T05:33:42;27.80;99.90
20726;DHT22;10524;48.132;8.518;2022-07-25T05:36:07;28.30;99.90
20726;DHT22;10524;48.132;8.518;2022-07-25T05:38:33;28.40;99.90
20726;DHT22;10524;48.132;8.518;2022-07-25T05:40:59;29.10;99.90
20726;DHT22;10524;48.132;8.518;2022-07-25T05:43:25;29.60;99.90
20726;DHT22;10524;48.132;8.518;2022-07-25T05:45:51;29.70;99.90
20726;DHT22;10524;48.132;8.518;2022-07-25T05:48:16;29.60;99.90
20726;DHT22;10524;48.132;8.518;2022-07-25T05:50:42;30.00;99.90
20726;DHT22;10524;48.132;8.518;2022-07-25T05:53:08;30.40;99.90
20726;DHT22;10524;48.132;8.518;2022-07-25T05:55:33;31.00;99.90
20726;DHT22;10524;48.132;8.518;2022-07-25T05:57:59;31.30;99.90
20726;DHT22;10524;48.132;8.518;2022-07-25T06:00:25;32.10;99.90
20726;DHT22;10524;48.132;8.518;2022-07-25T06:02:50;32.80;99.90
20726;DHT22;10524;48.132;8.518;2022-07-25T06:05:16;32.40;99.90
20726;DHT22;10524;48.132;8.518;2022-07-25T06:07:42;32.80;99.90
20726;DHT22;10524;48.132;8.518;2022-07-25T06:10:07;33.20;99.90
20726;DHT22;10524;48.132;8.518;2022-07-25T06:12:33;32.20;99.90
20726;DHT22;10524;48.132;8.518;2022-07-25T06:14:59;31.70;99.90
20726;DHT22;10524;48.132;8.518;2022-07-25T06:17:25;31.60;99.90
20726;DHT22;10524;48.132;8.518;2022-07-25T06:19:51;31.90;99.90
20726;DHT22;10524;48.132;8.518;2022-07-25T06:22:17;32.40;99.90
20726;DHT22;10524;48.132;8.518;2022-07-25T06:24:44;32.50;99.90
20726;DHT22;10524;48.132;8.518;2022-07-25T06:27:10;32.10;99.90
20726;DHT22;10524;48.132;8.518;2022-07-25T06:29:36;32.10;99.90
20726;DHT22;10524;48.132;8.518;2022-07-25T06:32:03;32.30;99.90
20726;DHT22;10524;48.132;8.518;2022-07-25T06:34:29;32.30;99.90
20726;DHT22;10524;48.132;8.518;2022-07-25T06:36:55;32.20;99.90
20726;DHT22;10524;48.132;8.518;2022-07-25T06:39:22;31.80;99.90
20726;DHT22;10524;48.132;8.518;2022-07-25T06:41:48;31.50;99.90
20726;DHT22;10524;48.132;8.518;2022-07-25T06:44:14;31.30;99.90
20726;DHT22;10524;48.132;8.518;2022-07-25T06:46:39;31.00;99.90
20726;DHT22;10524;48.132;8.518;2022-07-25T06:49:05;30.90;99.90
20726;DHT22;10524;48.132;8.518;2022-07-25T06:51:31;31.20;99.90
20726;DHT22;10524;48.132;8.518;2022-07-25T06:53:57;31.30;99.90
20726;DHT22;10524;48.132;8.518;2022-07-25T06:56:23;31.60;99.90
20726;DHT22;10524;48.132;8.518;2022-07-25T06:58:49;31.70;99.90
20726;DHT22;10524;48.132;8.518;2022-07-25T07:01:15;32.10;99.90
20726;DHT22;10524;48.132;8.518;2022-07-25T07:03:40;31.40;99.90
20726;DHT22;10524;48.132;8.518;2022-07-25T07:06:07;31.50;99.90
20726;DHT22;10524;48.132;8.518;2022-07-25T07:08:36;31.30;99.90
20726;DHT22;10524;48.132;8.518;2022-07-25T07:11:03;30.70;99.90
20726;DHT22;10524;48.132;8.518;2022-07-25T07:13:28;31.50;99.90
20726;DHT22;10524;48.132;8.518;2022-07-25T07:15:54;31.50;99.90
20726;DHT22;10524;48.132;8.518;2022-07-25T07:18:20;32.10;99.90
20726;DHT22;10524;48.132;8.518;2022-07-25T07:20:46;32.70;99.90
20726;DHT22;10524;48.132;8.518;2022-07-25T07:23:13;32.60;99.90
20726;DHT22;10524;48.132;8.518;2022-07-25T07:25:39;32.90;99.90
20726;DHT22;10524;48.132;8.518;2022-07-25T07:28:05;33.40;99.90
20726;DHT22;10524;48.132;8.518;2022-07-25T07:30:31;33.80;99.90
20726;DHT22;10524;48.132;8.518;2022-07-25T07:32:57;34.50;99.40
20726;DHT22;10524;48.132;8.518;2022-07-25T07:35:23;34.70;99.20
20726;DHT22;10524;48.132;8.518;2022-07-25T07:37:50;35.00;98.70
20726;DHT22;10524;48.132;8.518;2022-07-25T07:40:19;35.50;97.90
20726;DHT22;10524;48.132;8.518;2022-07-25T07:42:48;36.30;96.80
20726;DHT22;10524;48.132;8.518;2022-07-25T07:45:22;36.80;96.20
20726;DHT22;10524;48.132;8.518;2022-07-25T07:47:49;36.90;95.90
20726;DHT22;10524;48.132;8.518;2022-07-25T07:50:17;36.30;95.70
20726;DHT22;10524;48.132;8.518;2022-07-25T07:52:44;36.70;95.70
20726;DHT22;10524;48.132;8.518;2022-07-25T07:55:10;36.70;95.10
20726;DHT22;10524;48.132;8.518;2022-07-25T07:57:55;37.20;94.50
20726;DHT22;10524;48.132;8.518;2022-07-25T08:00:21;38.10;93.70
20726;DHT22;10524;48.132;8.518;2022-07-25T08:02:51;38.00;93.80
20726;DHT22;10524;48.132;8.518;2022-07-25T08:05:27;39.40;92.50
20726;DHT22;10524;48.132;8.518;2022-07-25T08:07:54;39.20;92.20
20726;DHT22;10524;48.132;8.518;2022-07-25T08:10:22;38.80;91.90
20726;DHT22;10524;48.132;8.518;2022-07-25T08:12:48;39.80;91.50
20726;DHT22;10524;48.132;8.518;2022-07-25T08:15:15;40.30;90.60
20726;DHT22;10524;48.132;8.518;2022-07-25T08:17:42;39.20;89.80
20726;DHT22;10524;48.132;8.518;2022-07-25T08:20:08;38.80;90.20
20726;DHT22;10524;48.132;8.518;2022-07-25T08:23:00;38.50;90.40
20726;DHT22;10524;48.132;8.518;2022-07-25T08:25:26;39.40;89.50
20726;DHT22;10524;48.132;8.518;2022-07-25T08:27:52;39.20;87.20
20726;DHT22;10524;48.132;8.518;2022-07-25T08:30:17;38.80;85.10
20726;DHT22;10524;48.132;8.518;2022-07-25T08:33:10;38.60;84.70
20726;DHT22;10524;48.132;8.518;2022-07-25T08:35:38;39.30;85.80
20726;DHT22;10524;48.132;8.518;2022-07-25T08:38:05;40.30;86.00
20726;DHT22;10524;48.132;8.518;2022-07-25T08:40:32;40.80;83.00
20726;DHT22;10524;48.132;8.518;2022-07-25T08:42:58;41.20;80.40
20726;DHT22;10524;48.132;8.518;2022-07-25T08:45:26;41.30;79.00
20726;DHT22;10524;48.132;8.518;2022-07-25T08:47:53;39.70;79.70
20726;DHT22;10524;48.132;8.518;2022-07-25T08:50:26;40.00;80.30
20726;DHT22;10524;48.132;8.518;2022-07-25T08:52:53;41.30;77.70
20726;DHT22;10524;48.132;8.518;2022-07-25T08:55:21;40.80;77.70
20726;DHT22;10524;48.132;8.518;2022-07-25T08:57:49;41.20;77.50
20726;DHT22;10524;48.132;8.518;2022-07-25T09:00:20;41.40;75.90
20726;DHT22;10524;48.132;8.518;2022-07-25T09:02:59;41.10;76.30
20726;DHT22;10524;48.132;8.518;2022-07-25T09:05:26;41.10;76.30
20726;DHT22;10524;48.132;8.518;2022-07-25T09:07:53;42.20;74.30
20726;DHT22;10524;48.132;8.518;2022-07-25T09:10:24;41.50;74.70
20726;DHT22;10524;48.132;8.518;2022-07-25T09:13:07;41.70;74.00
20726;DHT22;10524;48.132;8.518;2022-07-25T09:15:47;42.00;73.30
20726;DHT22;10524;48.132;8.518;2022-07-25T09:18:15;42.70;72.20
20726;DHT22;10524;48.132;8.518;2022-07-25T09:20:50;43.10;72.10
20726;DHT22;10524;48.132;8.518;2022-07-25T09:23:30;42.70;72.20
20726;DHT22;10524;48.132;8.518;2022-07-25T09:26:10;42.60;72.30
20726;DHT22;10524;48.132;8.518;2022-07-25T09:28:50;42.40;71.20
20726;DHT22;10524;48.132;8.518;2022-07-25T09:31:18;42.20;72.30
20726;DHT22;10524;48.132;8.518;2022-07-25T09:33:54;42.00;70.20
20726;DHT22;10524;48.132;8.518;2022-07-25T09:36:24;41.90;70.90
20726;DHT22;10524;48.132;8.518;2022-07-25T09:38:58;41.60;71.40
20726;DHT22;10524;48.132;8.518;2022-07-25T09:41:36;42.00;71.50
20726;DHT22;10524;48.132;8.518;2022-07-25T09:44:03;42.60;69.80
20726;DHT22;10524;48.132;8.518;2022-07-25T09:46:39;41.80;70.70
20726;DHT22;10524;48.132;8.518;2022-07-25T09:49:04;42.30;70.30
20726;DHT22;10524;48.132;8.518;2022-07-25T09:51:31;42.40;69.50
20726;DHT22;10524;48.132;8.518;2022-07-25T09:53:56;43.60;68.20
20726;DHT22;10524;48.132;8.518;2022-07-25T09:56:22;44.70;67.50
20726;DHT22;10524;48.132;8.518;2022-07-25T09:58:48;44.20;67.10
20726;DHT22;10524;48.132;8.518;2022-07-25T10:01:19;43.20;67.80
20726;DHT22;10524;48.132;8.518;2022-07-25T10:03:52;43.50;67.70
20726;DHT22;10524;48.132;8.518;2022-07-25T10:06:33;43.40;67.90
20726;DHT22;10524;48.132;8.518;2022-07-25T10:09:02;43.10;67.40
20726;DHT22;10524;48.132;8.518;2022-07-25T10:11:27;42.20;68.10
20726;DHT22;10524;48.132;8.518;2022-07-25T10:13:55;41.40;68.80
20726;DHT22;10524;48.132;8.518;2022-07-25T10:16:24;41.10;68.70
20726;DHT22;10524;48.132;8.518;2022-07-25T10:18:53;41.60;69.10
20726;DHT22;10524;48.132;8.518;2022-07-25T10:21:20;41.80;67.90
20726;DHT22;10524;48.132;8.518;2022-07-25T10:23:57;42.50;67.60
20726;DHT22;10524;48.132;8.518;2022-07-25T10:26:22;43.30;66.60
20726;DHT22;10524;48.132;8.518;2022-07-25T10:28:51;43.10;66.60
20726;DHT22;10524;48.132;8.518;2022-07-25T10:31:40;41.70;67.50
20726;DHT22;10524;48.132;8.518;2022-07-25T10:34:09;42.40;67.80
20726;DHT22;10524;48.132;8.518;2022-07-25T10:36:48;42.00;67.30
20726;DHT22;10524;48.132;8.518;2022-07-25T10:39:19;42.10;68.20
20726;DHT22;10524;48.132;8.518;2022-07-25T10:41:55;41.40;67.80
20726;DHT22;10524;48.132;8.518;2022-07-25T10:44:27;42.20;67.80
20726;DHT22;10524;48.132;8.518;2022-07-25T10:47:04;40.90;68.60
20726;DHT22;10524;48.132;8.518;2022-07-25T10:49:34;42.00;68.40
20726;DHT22;10524;48.132;8.518;2022-07-25T10:52:02;41.80;66.90
20726;DHT22;10524;48.132;8.518;2022-07-25T10:54:52;41.40;68.20
20726;DHT22;10524;48.132;8.518;2022-07-25T10:57:18;41.60;67.80
20726;DHT22;10524;48.132;8.518;2022-07-25T10:59:44;41.40;67.70
20726;DHT22;10524;48.132;8.518;2022-07-25T11:02:11;40.40;68.40
20726;DHT22;10524;48.132;8.518;2022-07-25T11:04:44;39.70;69.40
20726;DHT22;10524;48.132;8.518;2022-07-25T11:07:15;40.10;69.30
20726;DHT22;10524;48.132;8.518;2022-07-25T11:09:42;38.70;69.20
20726;DHT22;10524;48.132;8.518;2022-07-25T11:12:08;38.60;69.70
20726;DHT22;10524;48.132;8.518;2022-07-25T11:14:35;38.90;69.00
20726;DHT22;10524;48.132;8.518;2022-07-25T11:17:22;40.30;69.30
20726;DHT22;10524;48.132;8.518;2022-07-25T11:19:56;41.40;67.20
20726;DHT22;10524;48.132;8.518;2022-07-25T11:22:22;40.80;66.80
20726;DHT22;10524;48.132;8.518;2022-07-25T11:24:48;41.20;66.90
20726;DHT22;10524;48.132;8.518;2022-07-25T11:27:28;41.60;65.30
20726;DHT22;10524;48.132;8.518;2022-07-25T11:30:12;41.10;64.60
20726;DHT22;10524;48.132;8.518;2022-07-25T11:32:47;41.40;64.80
20726;DHT22;10524;48.132;8.518;2022-07-25T11:35:20;41.70;64.00
20726;DHT22;10524;48.132;8.518;2022-07-25T11:37:46;42.50;62.70
20726;DHT22;10524;48.132;8.518;2022-07-25T11:40:17;43.00;61.40
20726;DHT22;10524;48.132;8.518;2022-07-25T11:42:52;42.60;61.50
20726;DHT22;10524;48.132;8.518;2022-07-25T11:45:25;42.60;62.40
20726;DHT22;10524;48.132;8.518;2022-07-25T11:48:05;42.00;62.10
20726;DHT22;10524;48.132;8.518;2022-07-25T11:50:33;39.30;63.80
20726;DHT22;10524;48.132;8.518;2022-07-25T11:53:00;38.10;63.40
20726;DHT22;10524;48.132;8.518;2022-07-25T11:55:28;38.90;63.90
20726;DHT22;10524;48.132;8.518;2022-07-25T11:57:59;40.00;64.10
20726;DHT22;10524;48.132;8.518;2022-07-25T12:00:25;40.30;63.90
20726;DHT22;10524;48.132;8.518;2022-07-25T12:02:51;40.40;64.60
20726;DHT22;10524;48.132;8.518;2022-07-25T12:05:19;41.10;64.10
20726;DHT22;10524;48.132;8.518;2022-07-25T12:07:50;40.30;64.80
20726;DHT22;10524;48.132;8.518;2022-07-25T12:10:22;39.40;64.80
20726;DHT22;10524;48.132;8.518;2022-07-25T12:12:49;38.60;66.30
20726;DHT22;10524;48.132;8.518;2022-07-25T12:15:30;38.50;66.60
20726;DHT22;10524;48.132;8.518;2022-07-25T12:17:56;38.80;66.90
20726;DHT22;10524;48.132;8.518;2022-07-25T12:20:28;39.90;66.00
20726;DHT22;10524;48.132;8.518;2022-07-25T12:22:57;39.90;65.50
20726;DHT22;10524;48.132;8.518;2022-07-25T12:25:23;39.50;66.10
20726;DHT22;10524;48.132;8.518;2022-07-25T12:27:49;38.10;67.40
20726;DHT22;10524;48.132;8.518;2022-07-25T12:30:15;38.20;68.00
20726;DHT22;10524;48.132;8.518;2022-07-25T12:32:41;38.40;68.40
20726;DHT22;10524;48.132;8.518;2022-07-25T12:35:09;37.90;69.60
20726;DHT22;10524;48.132;8.518;2022-07-25T12:37:36;36.90;70.30
20726;DHT22;10524;48.132;8.518;2022-07-25T12:40:03;36.60;71.70
20726;DHT22;10524;48.132;8.518;2022-07-25T12:42:29;36.30;72.50
20726;DHT22;10524;48.132;8.518;2022-07-25T12:44:55;36.40;73.20
20726;DHT22;10524;48.132;8.518;2022-07-25T12:47:22;36.40;73.30
20726;DHT22;10524;48.132;8.518;2022-07-25T12:49:48;37.20;73.50
20726;DHT22;10524;48.132;8.518;2022-07-25T12:52:14;38.40;73.10
20726;DHT22;10524;48.132;8.518;2022-07-25T12:54:40;39.00;72.30
20726;DHT22;10524;48.132;8.518;2022-07-25T12:57:06;37.90;72.10
20726;DHT22;10524;48.132;8.518;2022-07-25T12:59:32;37.70;73.20
20726;DHT22;10524;48.132;8.518;2022-07-25T13:01:58;37.70;73.30
20726;DHT22;10524;48.132;8.518;2022-07-25T13:04:23;37.10;73.40
20726;DHT22;10524;48.132;8.518;2022-07-25T13:06:53;36.10;74.50
20726;DHT22;10524;48.132;8.518;2022-07-25T13:09:20;35.80;75.30
20726;DHT22;10524;48.132;8.518;2022-07-25T13:11:46;35.20;76.20
20726;DHT22;10524;48.132;8.518;2022-07-25T13:14:12;35.00;76.50
20726;DHT22;10524;48.132;8.518;2022-07-25T13:16:37;34.50;76.80
20726;DHT22;10524;48.132;8.518;2022-07-25T13:19:06;34.20;77.60
20726;DHT22;10524;48.132;8.518;2022-07-25T13:21:32;33.80;78.20
20726;DHT22;10524;48.132;8.518;2022-07-25T13:23:57;34.10;78.00
20726;DHT22;10524;48.132;8.518;2022-07-25T13:26:23;34.20;78.40
20726;DHT22;10524;48.132;8.518;2022-07-25T13:28:49;33.50;80.50
20726;DHT22;10524;48.132;8.518;2022-07-25T13:31:19;33.50;79.90
20726;DHT22;10524;48.132;8.518;2022-07-25T13:33:47;34.10;79.50
20726;DHT22;10524;48.132;8.518;2022-07-25T13:36:13;35.60;77.90
20726;DHT22;10524;48.132;8.518;2022-07-25T13:38:39;36.00;76.60
20726;DHT22;10524;48.132;8.518;2022-07-25T13:41:09;35.80;76.50
20726;DHT22;10524;48.132;8.518;2022-07-25T13:43:35;35.30;76.90
20726;DHT22;10524;48.132;8.518;2022-07-25T13:46:01;35.10;76.90
20726;DHT22;10524;48.132;8.518;2022-07-25T13:48:27;35.00;77.10
20726;DHT22;10524;48.132;8.518;2022-07-25T13:50:59;35.10;77.30
20726;DHT22;10524;48.132;8.518;2022-07-25T13:53:25;35.80;76.80
20726;DHT22;10524;48.132;8.518;2022-07-25T13:55:51;36.50;75.80
20726;DHT22;10524;48.132;8.518;2022-07-25T13:58:17;36.70;74.90
20726;DHT22;10524;48.132;8.518;2022-07-25T14:00:43;36.10;75.10
20726;DHT22;10524;48.132;8.518;2022-07-25T14:03:09;35.60;75.40
20726;DHT22;10524;48.132;8.518;2022-07-25T14:05:37;36.70;76.10
20726;DHT22;10524;48.132;8.518;2022-07-25T14:08:03;37.80;73.60
20726;DHT22;10524;48.132;8.518;2022-07-25T14:10:29;36.50;74.40
20726;DHT22;10524;48.132;8.518;2022-07-25T14:12:55;35.70;75.40
20726;DHT22;10524;48.132;8.518;2022-07-25T14:15:21;35.10;77.10
20726;DHT22;10524;48.132;8.518;2022-07-25T14:17:46;34.60;77.40
20726;DHT22;10524;48.132;8.518;2022-07-25T14:20:12;34.30;77.60
20726;DHT22;10524;48.132;8.518;2022-07-25T14:22:38;33.90;78.20
20726;DHT22;10524;48.132;8.518;2022-07-25T14:25:07;34.00;78.50
20726;DHT22;10524;48.132;8.518;2022-07-25T14:27:33;34.10;78.60
20726;DHT22;10524;48.132;8.518;2022-07-25T14:29:59;34.20;78.70
20726;DHT22;10524;48.132;8.518;2022-07-25T14:32:25;34.40;78.50
20726;DHT22;10524;48.132;8.518;2022-07-25T14:34:51;34.40;78.30
20726;DHT22;10524;48.132;8.518;2022-07-25T14:37:19;34.20;78.90
20726;DHT22;10524;48.132;8.518;2022-07-25T14:39:45;34.80;78.50
20726;DHT22;10524;48.132;8.518;2022-07-25T14:42:11;36.50;76.30
20726;DHT22;10524;48.132;8.518;2022-07-25T14:44:38;37.60;75.20
20726;DHT22;10524;48.132;8.518;2022-07-25T14:47:05;37.30;75.00
20726;DHT22;10524;48.132;8.518;2022-07-25T14:49:31;37.30;75.00
20726;DHT22;10524;48.132;8.518;2022-07-25T14:51:57;36.50;75.30
20726;DHT22;10524;48.132;8.518;2022-07-25T14:54:23;35.90;76.50
20726;DHT22;10524;48.132;8.518;2022-07-25T14:56:53;35.80;77.10
20726;DHT22;10524;48.132;8.518;2022-07-25T14:59:19;36.40;76.40
20726;DHT22;10524;48.132;8.518;2022-07-25T15:01:45;37.30;75.50
20726;DHT22;10524;48.132;8.518;2022-07-25T15:04:11;38.00;74.70
20726;DHT22;10524;48.132;8.518;2022-07-25T15:06:37;37.40;75.00
20726;DHT22;10524;48.132;8.518;2022-07-25T15:09:03;37.30;75.00
20726;DHT22;10524;48.132;8.518;2022-07-25T15:11:29;37.90;74.90
20726;DHT22;10524;48.132;8.518;2022-07-25T15:13:55;38.40;73.30
20726;DHT22;10524;48.132;8.518;2022-07-25T15:16:21;37.30;73.50
20726;DHT22;10524;48.132;8.518;2022-07-25T15:18:47;36.10;74.70
20726;DHT22;10524;48.132;8.518;2022-07-25T15:21:13;35.30;76.00
20726;DHT22;10524;48.132;8.518;2022-07-25T15:23:39;34.20;77.30
20726;DHT22;10524;48.132;8.518;2022-07-25T15:26:05;34.40;78.00
20726;DHT22;10524;48.132;8.518;2022-07-25T15:28:32;35.00;77.30
20726;DHT22;10524;48.132;8.518;2022-07-25T15:30:58;36.00;76.20